Time;durP1;ratioP1;P1;durP2;ratioP2;P2;SDS_P1;SDS_P2;PMS_P1;PMS_P2;Temp;Humidity;BMP_temperature;BMP_pressure;BME280_temperature;BME280_humidity;BME280_pressure;Samples;Min_cycle;Max_cycle;Signal;HPM_P1;HPM_P2
2022/11/22 00:00:18;;;;;;;3.20;2.17;;;;;13.20;98889.00;;;;5018777;28;20671;-79
2022/11/22 00:02:46;;;;;;;3.67;2.17;;;;;13.20;98889.00;;;;5012222;28;20221;-79
2022/11/22 00:05:13;;;;;;;4.20;2.20;;;;;13.20;98890.00;;;;5013159;28;20189;-79
2022/11/22 00:07:41;;;;;;;3.38;1.83;;;;;13.30;98880.00;;;;5015252;28;20581;-79
2022/11/22 00:10:12;;;;;;;2.70;2.05;;;;;13.20;98880.00;;;;5017715;28;21027;-79
2022/11/22 00:12:41;;;;;;;4.20;2.20;;;;;13.30;98888.00;;;;5021803;28;20208;-79
2022/11/22 00:15:09;;;;;;;3.00;2.20;;;;;13.30;98888.00;;;;5016754;28;20230;-79
2022/11/22 00:17:37;;;;;;;3.30;2.03;;;;;13.30;98883.00;;;;5021983;28;20204;-79
2022/11/22 00:20:05;;;;;;;3.15;1.80;;;;;13.30;98886.00;;;;5022930;28;20208;-79
2022/11/22 00:22:33;;;;;;;2.58;1.95;;;;;13.30;98893.00;;;;5018991;28;20220;-78
2022/11/22 00:25:00;;;;;;;3.75;2.45;;;;;13.30;98892.00;;;;5017662;28;20204;-79
2022/11/22 00:27:29;;;;;;;4.20;2.40;;;;;13.30;98889.00;;;;5009513;28;20197;-79
2022/11/22 00:29:56;;;;;;;5.80;2.38;;;;;13.40;98887.00;;;;5017101;28;20200;-79
2022/11/22 00:32:24;;;;;;;3.85;2.50;;;;;13.40;98887.00;;;;5012179;28;20196;-79
2022/11/22 00:34:51;;;;;;;3.75;2.53;;;;;13.40;98877.00;;;;5016832;28;20236;-79
2022/11/22 00:37:19;;;;;;;3.92;2.40;;;;;13.40;98873.00;;;;5018802;28;20227;-79
2022/11/22 00:39:47;;;;;;;5.68;2.28;;;;;13.40;98872.00;;;;5011729;28;20220;-79
2022/11/22 00:42:14;;;;;;;4.35;2.60;;;;;13.40;98874.00;;;;5016551;28;20192;-79
2022/11/22 00:44:43;;;;;;;3.75;2.22;;;;;13.40;98878.00;;;;5009522;28;20207;-79
2022/11/22 00:47:10;;;;;;;2.83;1.92;;;;;13.40;98882.00;;;;5011614;28;20209;-79
2022/11/22 00:49:37;;;;;;;3.78;2.15;;;;;13.40;98878.00;;;;5015493;28;20216;-79
2022/11/22 00:52:05;;;;;;;3.92;2.25;;;;;13.40;98871.00;;;;5027040;28;20208;-79
2022/11/22 00:54:32;;;;;;;5.63;3.05;;;;;13.40;98877.00;;;;5021394;28;20200;-79
2022/11/22 00:56:59;;;;;;;4.40;2.60;;;;;13.30;98880.00;;;;5022335;28;20199;-79
2022/11/22 00:59:27;;;;;;;5.80;2.47;;;;;13.30;98886.00;;;;5013169;28;20181;-79
2022/11/22 01:01:55;;;;;;;3.75;2.17;;;;;13.30;98884.00;;;;5011804;28;20192;-79
2022/11/22 01:04:23;;;;;;;3.60;2.42;;;;;13.30;98885.00;;;;5024489;28;20231;-79
2022/11/22 01:06:50;;;;;;;4.18;2.17;;;;;13.20;98887.00;;;;5022019;28;20693;-79
2022/11/22 01:09:20;;;;;;;4.32;2.30;;;;;13.20;98885.00;;;;5010168;28;20201;-79
2022/11/22 01:11:47;;;;;;;2.47;1.85;;;;;13.20;98879.00;;;;5011729;28;20204;-79
2022/11/22 01:14:16;;;;;;;5.05;2.38;;;;;13.20;98888.00;;;;5008453;28;20193;-79
2022/11/22 01:16:43;;;;;;;2.95;2.40;;;;;13.20;98889.00;;;;5022257;28;20205;-79
2022/11/22 01:19:12;;;;;;;3.17;2.05;;;;;13.10;98884.00;;;;5019939;28;20573;-79
2022/11/22 01:21:40;;;;;;;2.83;2.05;;;;;13.10;98879.00;;;;5018257;28;20201;-79
2022/11/22 01:24:08;;;;;;;5.35;2.67;;;;;13.10;98882.00;;;;5027316;28;20228;-79
2022/11/22 01:26:36;;;;;;;5.63;2.72;;;;;13.00;98880.00;;;;5012651;28;21002;-78
2022/11/22 01:29:04;;;;;;;2.60;2.30;;;;;13.00;98873.00;;;;5009070;28;20216;-79
2022/11/22 01:31:32;;;;;;;4.20;2.58;;;;;13.00;98872.00;;;;5007349;28;20201;-79
2022/11/22 01:33:59;;;;;;;2.92;2.33;;;;;13.00;98876.00;;;;5008245;28;20221;-79
2022/11/22 01:36:29;;;;;;;3.55;1.98;;;;;12.90;98879.00;;;;5008507;28;20205;-78
2022/11/22 01:38:56;;;;;;;4.55;2.42;;;;;12.90;98890.00;;;;5008329;28;20205;-79
2022/11/22 01:41:24;;;;;;;4.75;2.42;;;;;12.90;98886.00;;;;5009061;28;20277;-78
2022/11/22 01:43:51;;;;;;;4.25;2.17;;;;;12.80;98879.00;;;;5009018;28;20235;-79
2022/11/22 01:46:27;;;;;;;2.92;1.77;;;;;12.80;98879.00;;;;5009694;28;20562;-78
2022/11/22 01:48:59;;;;;;;3.40;2.28;;;;;12.80;98892.00;;;;5008253;28;20208;-78
2022/11/22 01:51:34;;;;;;;2.60;1.88;;;;;12.70;98887.00;;;;5007002;28;20197;-78
2022/11/22 01:54:07;;;;;;;2.53;1.85;;;;;12.70;98886.00;;;;5016942;28;20375;-78
2022/11/22 01:56:38;;;;;;;3.50;1.92;;;;;12.70;98879.00;;;;5007835;28;20205;-78
2022/11/22 01:59:11;;;;;;;3.63;2.17;;;;;12.70;98879.00;;;;5008028;28;20197;-79
2022/11/22 02:01:39;;;;;;;4.10;1.67;;;;;12.70;98882.00;;;;5012776;28;20228;-79
2022/11/22 02:04:09;;;;;;;3.17;2.25;;;;;12.70;98883.00;;;;5008486;28;20798;-79
2022/11/22 02:06:44;;;;;;;3.00;1.88;;;;;12.60;98895.00;;;;5008100;28;20203;-78
2022/11/22 02:09:12;;;;;;;3.10;1.73;;;;;12.70;98903.00;;;;5020654;28;20214;-79
2022/11/22 02:11:46;;;;;;;3.08;1.88;;;;;12.60;98906.00;;;;5013271;28;20211;-79
2022/11/22 02:14:16;;;;;;;4.15;1.92;;;;;12.60;98903.00;;;;5019509;28;20383;-79
2022/11/22 02:16:45;;;;;;;3.83;1.83;;;;;12.60;98901.00;;;;5011984;28;20204;-79
2022/11/22 02:19:19;;;;;;;4.60;1.70;;;;;12.50;98906.00;;;;5022181;28;20197;-79
2022/11/22 02:21:55;;;;;;;2.38;1.40;;;;;12.50;98914.00;;;;5013127;28;20204;-78
2022/11/22 02:24:26;;;;;;;2.20;1.33;;;;;12.50;98913.00;;;;5009283;28;20247;-78
2022/11/22 02:26:55;;;;;;;5.90;1.90;;;;;12.50;98911.00;;;;5007686;28;20193;-78
2022/11/22 02:29:22;;;;;;;2.75;1.45;;;;;12.50;98909.00;;;;5008460;28;20197;-78
2022/11/22 02:31:50;;;;;;;5.28;1.38;;;;;12.50;98916.00;;;;5007739;28;20205;-78
2022/11/22 02:34:17;;;;;;;3.25;1.48;;;;;12.50;98916.00;;;;5015388;28;20228;-79
2022/11/22 02:36:49;;;;;;;5.20;1.35;;;;;12.40;98919.00;;;;5007952;28;20204;-79
2022/11/22 02:39:20;;;;;;;1.63;1.42;;;;;12.40;98917.00;;;;5008150;28;20192;-78
2022/11/22 02:41:49;;;;;;;2.80;1.50;;;;;12.40;98915.00;;;;5007161;28;20201;-79
2022/11/22 02:44:20;;;;;;;3.75;1.58;;;;;12.40;98925.00;;;;5007944;28;20344;-78
2022/11/22 02:46:49;;;;;;;3.83;0.95;;;;;12.40;98919.00;;;;5007268;28;20197;-79
2022/11/22 02:49:20;;;;;;;7.82;1.58;;;;;12.30;98911.00;;;;5010062;28;20197;-78
2022/11/22 02:51:48;;;;;;;2.40;1.30;;;;;12.30;98910.00;;;;5009008;28;20614;-79
2022/11/22 02:54:16;;;;;;;3.95;1.20;;;;;12.30;98910.00;;;;5011187;28;20216;-78
2022/11/22 02:56:43;;;;;;;2.88;1.10;;;;;12.30;98909.00;;;;5008005;28;20252;-78
2022/11/22 02:59:11;;;;;;;4.60;1.42;;;;;12.30;98898.00;;;;5008032;28;20205;-79
2022/11/22 03:01:39;;;;;;;3.70;1.20;;;;;12.30;98900.00;;;;5011135;28;20208;-79
2022/11/22 03:04:07;;;;;;;3.88;1.33;;;;;12.30;98910.00;;;;5007582;28;20851;-78
2022/11/22 03:06:34;;;;;;;2.60;1.20;;;;;12.20;98903.00;;;;5008409;28;20197;-79
2022/11/22 03:09:01;;;;;;;4.03;0.90;;;;;12.20;98917.00;;;;5007226;28;20196;-78
2022/11/22 03:11:29;;;;;;;4.30;1.50;;;;;12.20;98926.00;;;;5006565;28;20570;-78
2022/11/22 03:13:56;;;;;;;5.95;1.00;;;;;12.20;98933.00;;;;5007936;28;20208;-78
2022/11/22 03:16:23;;;;;;;5.85;1.23;;;;;12.20;98932.00;;;;5008088;28;20196;-78
2022/11/22 03:18:52;;;;;;;3.03;0.82;;;;;12.10;98941.00;;;;5008049;28;20197;-79
2022/11/22 03:21:19;;;;;;;4.45;0.85;;;;;12.10;98945.00;;;;5015201;28;20201;-79
2022/11/22 03:23:46;;;;;;;4.35;1.02;;;;;12.10;98942.00;;;;5011723;28;20213;-79
2022/11/22 03:26:14;;;;;;;5.40;1.50;;;;;12.10;98936.00;;;;5026378;28;20207;-79
2022/11/22 03:28:41;;;;;;;3.15;0.80;;;;;12.10;98938.00;;;;5023391;28;20205;-79
2022/11/22 03:31:08;;;;;;;1.20;0.82;;;;;12.00;98933.00;;;;5018066;28;20393;-79
2022/11/22 03:33:36;;;;;;;10.30;1.73;;;;;12.00;98935.00;;;;5030221;28;20213;-79
2022/11/22 03:36:06;;;;;;;2.80;1.10;;;;;12.00;98937.00;;;;5027544;28;20205;-78
2022/11/22 03:38:35;;;;;;;4.43;1.20;;;;;12.00;98942.00;;;;5029157;28;20204;-79
2022/11/22 03:41:02;;;;;;;4.22;1.70;;;;;12.00;98948.00;;;;5030466;28;20196;-78
2022/11/22 03:43:29;;;;;;;4.57;0.98;;;;;12.00;98952.00;;;;5020703;28;20706;-79
2022/11/22 03:45:57;;;;;;;3.13;1.10;;;;;11.90;98960.00;;;;5016375;28;20686;-78
2022/11/22 03:48:24;;;;;;;3.70;1.25;;;;;11.90;98953.00;;;;5014656;28;20197;-78
2022/11/22 03:50:51;;;;;;;5.75;1.10;;;;;11.90;98960.00;;;;5020329;28;20200;-79
2022/11/22 03:53:21;;;;;;;5.18;1.60;;;;;11.90;98963.00;;;;5016040;28;20212;-78
2022/11/22 03:55:49;;;;;;;3.22;1.52;;;;;11.90;98965.00;;;;5029933;28;21020;-78
2022/11/22 03:58:16;;;;;;;5.47;1.45;;;;;11.80;98968.00;;;;5020501;28;20195;-78
2022/11/22 04:00:43;;;;;;;4.18;1.13;;;;;11.80;98968.00;;;;5016445;28;20200;-77
2022/11/22 04:03:10;;;;;;;4.95;0.70;;;;;11.80;98957.00;;;;5022656;28;20577;-77
2022/11/22 04:05:38;;;;;;;3.08;1.35;;;;;11.80;98973.00;;;;5014358;28;20233;-77
2022/11/22 04:08:05;;;;;;;3.85;1.13;;;;;11.80;98976.00;;;;5012019;28;20196;-78
2022/11/22 04:10:34;;;;;;;4.75;0.80;;;;;11.80;98973.00;;;;5023963;28;20200;-78
2022/11/22 04:13:01;;;;;;;6.82;1.48;;;;;11.80;98969.00;;;;5029533;28;20223;-78
2022/11/22 04:15:27;;;;;;;2.95;1.10;;;;;11.80;98975.00;;;;5010763;28;20209;-77
2022/11/22 04:17:55;;;;;;;2.03;1.05;;;;;11.80;98969.00;;;;5023717;28;20224;-78
2022/11/22 04:23:11;;;;;;;1.88;0.52;;;;;11.70;98973.00;;;;5018976;28;20211;-78
2022/11/22 04:25:40;;;;;;;3.03;1.15;;;;;11.70;98968.00;;;;5012273;28;20221;-79
2022/11/22 04:28:09;;;;;;;4.90;1.05;;;;;11.70;98972.00;;;;5022259;28;20197;-78
2022/11/22 04:33:22;;;;;;;2.50;1.00;;;;;11.70;98973.00;;;;5016938;28;20698;-78
2022/11/22 04:35:50;;;;;;;1.75;0.65;;;;;11.60;98970.00;;;;5021603;28;20761;-79
2022/11/22 04:38:18;;;;;;;6.60;0.77;;;;;11.60;98968.00;;;;5013901;28;20212;-78
2022/11/22 04:40:47;;;;;;;6.00;1.42;;;;;11.60;98969.00;;;;5010125;28;20207;-78
2022/11/22 04:46:04;;;;;;;3.17;1.10;;;;;11.50;98975.00;;;;5019188;28;20212;-78
2022/11/22 04:48:31;;;;;;;3.50;1.10;;;;;11.50;98977.00;;;;5009610;28;20551;-77
2022/11/22 04:53:44;;;;;;;6.35;1.00;;;;;11.50;98992.00;;;;5016206;28;20847;-78
2022/11/22 04:56:13;;;;;;;5.00;1.00;;;;;11.40;98991.00;;;;5024685;28;20201;-79
2022/11/22 04:58:40;;;;;;;2.78;0.88;;;;;11.40;98993.00;;;;5008536;28;20220;-78
2022/11/22 05:01:08;;;;;;;4.32;0.90;;;;;11.40;98993.00;;;;5011421;28;20208;-78
2022/11/22 05:03:35;;;;;;;3.63;1.10;;;;;11.40;98990.00;;;;5021544;28;20205;-78
2022/11/22 05:06:04;;;;;;;4.15;1.02;;;;;11.30;98979.00;;;;5014022;28;20203;-78
2022/11/22 05:08:32;;;;;;;2.00;0.85;;;;;11.30;98991.00;;;;5020559;28;20208;-78
2022/11/22 05:10:59;;;;;;;7.50;1.83;;;;;11.30;98994.00;;;;5022641;28;20211;-78
2022/11/22 05:13:31;;;;;;;4.13;1.25;;;;;11.20;98990.00;;;;5014580;28;20188;-78
2022/11/22 05:15:58;;;;;;;2.28;0.75;;;;;11.20;98995.00;;;;5016990;28;20212;-78
2022/11/22 05:18:26;;;;;;;2.45;0.90;;;;;11.20;98997.00;;;;5010860;28;20197;-78
2022/11/22 05:20:54;;;;;;;2.67;0.90;;;;;11.20;99005.00;;;;5018292;28;20584;-79
2022/11/22 05:26:08;;;;;;;4.13;0.70;;;;;11.20;99006.00;;;;5010981;28;20275;-78
2022/11/22 05:28:38;;;;;;;3.72;1.17;;;;;11.10;99004.00;;;;5015960;28;20197;-78
2022/11/22 05:31:10;;;;;;;3.75;0.95;;;;;11.10;99007.00;;;;5013475;28;20206;-78
2022/11/22 05:33:39;;;;;;;1.73;0.57;;;;;11.10;99015.00;;;;5025298;28;20201;-78
2022/11/22 05:36:07;;;;;;;3.08;1.02;;;;;11.10;99020.00;;;;5016896;28;20203;-78
2022/11/22 05:38:36;;;;;;;7.05;1.30;;;;;11.10;99006.00;;;;5009434;28;20193;-78
2022/11/22 05:41:04;;;;;;;2.92;0.70;;;;;11.10;99006.00;;;;5022312;28;20603;-79
2022/11/22 05:43:33;;;;;;;3.15;0.90;;;;;11.10;99011.00;;;;5011534;28;20193;-78
2022/11/22 05:46:07;;;;;;;2.20;0.70;;;;;11.00;99007.00;;;;5023002;28;20681;-78
2022/11/22 05:48:35;;;;;;;1.92;0.77;;;;;11.00;99009.00;;;;5008969;28;20192;-78
2022/11/22 05:51:06;;;;;;;2.30;0.52;;;;;11.00;99014.00;;;;5007297;28;20201;-78
2022/11/22 05:53:34;;;;;;;3.90;1.05;;;;;11.00;99004.00;;;;5008147;28;20254;-78
2022/11/22 05:56:05;;;;;;;4.47;0.90;;;;;11.00;99009.00;;;;5020504;28;20203;-78
2022/11/22 05:58:32;;;;;;;3.47;0.80;;;;;11.00;99015.00;;;;5028186;28;20568;-78
2022/11/22 06:01:06;;;;;;;1.70;0.70;;;;;11.00;99017.00;;;;5020550;28;20224;-78
2022/11/22 06:03:34;;;;;;;2.53;0.63;;;;;11.10;99007.00;;;;5006967;28;20662;-78
2022/11/22 06:06:01;;;;;;;4.53;0.90;;;;;11.10;99006.00;;;;5010114;28;20227;-78
2022/11/22 06:08:30;;;;;;;3.72;1.13;;;;;11.10;99008.00;;;;5012237;28;20200;-78
2022/11/22 06:11:03;;;;;;;4.22;0.93;;;;;11.20;99010.00;;;;5012870;28;20665;-79
2022/11/22 06:13:34;;;;;;;5.25;0.82;;;;;11.20;99006.00;;;;5010285;28;20203;-78
2022/11/22 06:16:02;;;;;;;5.85;0.88;;;;;11.20;99003.00;;;;5012169;28;20209;-78
2022/11/22 06:18:31;;;;;;;2.60;0.43;;;;;11.30;99001.00;;;;5010713;28;20205;-77
2022/11/22 06:20:59;;;;;;;3.50;1.42;;;;;11.30;99014.00;;;;5015453;28;20205;-76
2022/11/22 06:23:27;;;;;;;1.63;0.60;;;;;11.40;99015.00;;;;5012259;28;20620;-76
2022/11/22 06:25:58;;;;;;;4.53;0.80;;;;;11.30;99015.00;;;;5017641;28;20598;-77
2022/11/22 06:28:26;;;;;;;4.00;0.95;;;;;11.40;99013.00;;;;5015237;28;20238;-76
2022/11/22 06:30:53;;;;;;;2.85;0.70;;;;;11.40;99006.00;;;;5012642;28;20196;-77
2022/11/22 06:33:21;;;;;;;5.28;1.40;;;;;11.40;99003.00;;;;5023037;28;20279;-78
2022/11/22 06:35:49;;;;;;;4.18;0.82;;;;;11.40;99006.00;;;;5020235;28;20234;-76
2022/11/22 06:38:17;;;;;;;3.75;1.35;;;;;11.50;99006.00;;;;5018123;28;20212;-77
2022/11/22 06:40:44;;;;;;;3.90;0.98;;;;;11.50;99005.00;;;;5008941;28;20208;-77
2022/11/22 06:43:11;;;;;;;3.38;0.70;;;;;11.50;99000.00;;;;5030553;28;20196;-77
2022/11/22 06:45:38;;;;;;;5.10;1.30;;;;;11.50;99007.00;;;;5007507;28;20220;-77
2022/11/22 06:48:06;;;;;;;4.85;0.95;;;;;11.60;99005.00;;;;5008177;28;20200;-76
2022/11/22 06:50:34;;;;;;;2.63;0.80;;;;;11.60;99019.00;;;;5008043;28;20239;-76
2022/11/22 06:53:03;;;;;;;1.67;0.75;;;;;11.60;99025.00;;;;5008249;28;20225;-77
2022/11/22 06:55:30;;;;;;;3.05;1.15;;;;;11.60;99013.00;;;;5010032;28;20207;-77
2022/11/22 06:57:57;;;;;;;2.95;0.90;;;;;11.60;99020.00;;;;5011506;28;20224;-77
2022/11/22 07:00:24;;;;;;;7.57;1.25;;;;;11.60;99022.00;;;;5011451;28;20205;-75
2022/11/22 07:02:52;;;;;;;3.20;0.77;;;;;11.60;99025.00;;;;5029074;28;20201;-78
2022/11/22 07:05:19;;;;;;;4.47;1.10;;;;;11.60;99021.00;;;;5029541;28;20228;-77
2022/11/22 07:07:46;;;;;;;4.13;0.93;;;;;11.60;99020.00;;;;5018620;28;20203;-77
2022/11/22 07:10:15;;;;;;;3.40;0.80;;;;;11.60;99023.00;;;;5017046;28;20666;-77
2022/11/22 07:12:42;;;;;;;4.82;1.63;;;;;11.60;99022.00;;;;5013402;28;20209;-76
2022/11/22 07:15:11;;;;;;;8.18;1.20;;;;;11.60;99023.00;;;;5023771;28;20569;-77
2022/11/22 07:17:38;;;;;;;3.38;1.00;;;;;11.70;99024.00;;;;5015132;28;20388;-77
2022/11/22 07:20:06;;;;;;;3.72;1.00;;;;;11.60;99021.00;;;;5015669;28;20692;-76
2022/11/22 07:22:33;;;;;;;4.90;1.20;;;;;11.60;99030.00;;;;5029273;28;20662;-77
2022/11/22 07:25:01;;;;;;;3.95;1.02;;;;;11.70;99035.00;;;;5030651;28;20224;-77
2022/11/22 07:27:30;;;;;;;4.50;1.08;;;;;11.70;99041.00;;;;5019320;28;20204;-77
2022/11/22 07:29:57;;;;;;;4.05;0.68;;;;;11.70;99041.00;;;;5011206;28;20212;-77
2022/11/22 07:32:24;;;;;;;2.38;1.00;;;;;11.70;99044.00;;;;5018414;28;20212;-77
2022/11/22 07:34:51;;;;;;;4.65;0.90;;;;;11.70;99032.00;;;;5023334;28;20239;-77
2022/11/22 07:37:19;;;;;;;3.22;0.90;;;;;11.70;99047.00;;;;5030423;28;20196;-78
2022/11/22 07:39:46;;;;;;;4.53;1.33;;;;;11.70;99044.00;;;;5030890;28;20286;-77
2022/11/22 07:42:13;;;;;;;2.28;0.88;;;;;11.70;99039.00;;;;5017794;28;20197;-77
2022/11/22 07:44:42;;;;;;;4.55;0.80;;;;;11.70;99048.00;;;;5011401;28;20225;-76
2022/11/22 07:47:09;;;;;;;3.45;1.20;;;;;11.70;99041.00;;;;5013507;28;20207;-77
2022/11/22 07:49:38;;;;;;;4.90;1.40;;;;;11.80;99050.00;;;;5016036;28;20197;-76
2022/11/22 07:52:05;;;;;;;2.28;1.10;;;;;11.70;99038.00;;;;5016071;28;20292;-76
2022/11/22 07:54:33;;;;;;;4.60;1.13;;;;;11.80;99038.00;;;;5020222;28;20620;-77
2022/11/22 07:57:00;;;;;;;2.85;1.05;;;;;11.80;99040.00;;;;5020428;28;20208;-76
2022/11/22 07:59:27;;;;;;;1.50;1.00;;;;;11.80;99043.00;;;;5017537;28;20649;-76
2022/11/22 08:01:56;;;;;;;6.25;1.10;;;;;11.80;99041.00;;;;5019284;28;20200;-76
2022/11/22 08:04:23;;;;;;;3.78;0.82;;;;;11.80;99050.00;;;;5016208;28;20189;-77
2022/11/22 08:06:50;;;;;;;5.70;1.20;;;;;11.90;99039.00;;;;5019899;28;20201;-76
2022/11/22 08:09:17;;;;;;;4.95;1.13;;;;;11.90;99035.00;;;;5026816;28;20196;-76
2022/11/22 08:11:45;;;;;;;4.10;1.60;;;;;11.90;99052.00;;;;5019221;28;20204;-77
2022/11/22 08:14:12;;;;;;;7.38;0.93;;;;;11.90;99056.00;;;;5017772;28;20189;-77
2022/11/22 08:16:39;;;;;;;5.30;1.40;;;;;11.90;99059.00;;;;5021350;28;20208;-77
2022/11/22 08:19:08;;;;;;;3.00;1.10;;;;;11.90;99060.00;;;;5015779;28;20193;-76
2022/11/22 08:21:37;;;;;;;4.82;1.13;;;;;11.90;99057.00;;;;5017845;28;20197;-77
2022/11/22 08:24:05;;;;;;;3.60;1.42;;;;;11.90;99058.00;;;;5016772;28;20214;-77
2022/11/22 08:26:33;;;;;;;5.43;1.70;;;;;12.00;99057.00;;;;5012583;28;20238;-77
2022/11/22 08:29:03;;;;;;;3.88;1.10;;;;;12.00;99068.00;;;;5024261;28;20207;-77
2022/11/22 08:31:30;;;;;;;3.00;1.33;;;;;12.00;99065.00;;;;5020656;28;20677;-76
2022/11/22 08:33:57;;;;;;;4.13;1.50;;;;;12.00;99058.00;;;;5019593;28;20224;-76
2022/11/22 08:36:27;;;;;;;5.25;1.42;;;;;12.00;99060.00;;;;5019988;28;20193;-76
2022/11/22 08:38:54;;;;;;;6.03;1.77;;;;;12.10;99062.00;;;;5029987;28;20211;-76
2022/11/22 08:41:22;;;;;;;3.22;1.08;;;;;12.10;99071.00;;;;5021900;28;20193;-76
2022/11/22 08:43:50;;;;;;;3.97;1.42;;;;;12.10;99077.00;;;;5011772;28;20583;-77
2022/11/22 08:46:19;;;;;;;4.07;1.45;;;;;12.10;99073.00;;;;5010037;28;20229;-76
2022/11/22 08:48:46;;;;;;;2.88;1.45;;;;;12.10;99074.00;;;;5011917;28;20663;-76
2022/11/22 08:51:14;;;;;;;2.55;1.13;;;;;12.10;99070.00;;;;5010737;28;20201;-76
2022/11/22 08:53:44;;;;;;;2.78;1.10;;;;;12.10;99085.00;;;;5023360;28;20221;-76
2022/11/22 08:56:13;;;;;;;5.13;1.60;;;;;12.10;99082.00;;;;5010510;28;20207;-76
2022/11/22 08:58:40;;;;;;;4.85;1.30;;;;;12.20;99091.00;;;;5014618;28;20200;-77
2022/11/22 09:01:10;;;;;;;7.75;1.33;;;;;12.20;99091.00;;;;5009812;28;20288;-76
2022/11/22 09:03:38;;;;;;;2.42;1.10;;;;;12.20;99082.00;;;;5012962;28;20228;-76
2022/11/22 09:06:08;;;;;;;4.18;1.35;;;;;12.20;99086.00;;;;5021633;28;20231;-76
2022/11/22 09:08:36;;;;;;;4.45;1.10;;;;;12.20;99096.00;;;;5010883;28;20558;-76
2022/11/22 09:11:07;;;;;;;4.82;1.25;;;;;12.20;99100.00;;;;5019573;28;20247;-76
2022/11/22 09:13:35;;;;;;;4.80;1.30;;;;;12.30;99109.00;;;;5012063;28;20577;-76
2022/11/22 09:16:02;;;;;;;7.68;2.17;;;;;12.30;99115.00;;;;5022885;28;20193;-76
2022/11/22 09:18:30;;;;;;;4.10;1.45;;;;;12.30;99102.00;;;;5014339;28;20244;-76
2022/11/22 09:21:00;;;;;;;4.75;1.35;;;;;12.30;99108.00;;;;5026560;28;20211;-76
2022/11/22 09:23:28;;;;;;;3.53;0.70;;;;;12.40;99109.00;;;;5018599;28;20563;-76
2022/11/22 09:25:59;;;;;;;2.70;1.05;;;;;12.40;99114.00;;;;5012221;28;20697;-76
2022/11/22 09:28:29;;;;;;;3.88;1.10;;;;;12.40;99119.00;;;;5014214;28;20205;-76
2022/11/22 09:31:00;;;;;;;1.88;0.85;;;;;12.40;99119.00;;;;5010475;28;20200;-76
2022/11/22 09:33:27;;;;;;;2.95;0.90;;;;;12.50;99120.00;;;;5027856;28;21576;-76
2022/11/22 09:36:00;;;;;;;2.50;1.10;;;;;12.40;99113.00;;;;5028038;28;20231;-77
2022/11/22 09:38:28;;;;;;;1.90;0.93;;;;;12.50;99115.00;;;;5036164;28;20212;-77
2022/11/22 09:40:55;;;;;;;3.28;1.05;;;;;12.50;99121.00;;;;5012405;28;20204;-77
2022/11/22 09:43:37;;;;;;;3.10;0.90;;;;;12.50;99117.00;;;;5027063;28;20192;-77
2022/11/22 09:46:18;;;;;;;1.65;0.93;;;;;12.50;99122.00;;;;5015266;28;20235;-76
2022/11/22 09:49:05;;;;;;;1.48;0.90;;;;;12.50;99111.00;;;;5010560;28;20208;-76
2022/11/22 09:51:38;;;;;;;4.53;0.82;;;;;12.60;99118.00;;;;5008406;28;20193;-76
2022/11/22 09:54:09;;;;;;;2.33;0.80;;;;;12.60;99118.00;;;;5008319;28;20256;-76
2022/11/22 09:56:38;;;;;;;2.70;1.42;;;;;12.60;99123.00;;;;5023318;28;20205;-76
2022/11/22 09:59:12;;;;;;;2.25;0.95;;;;;12.60;99123.00;;;;5024610;28;20720;-76
2022/11/22 10:01:43;;;;;;;4.95;1.13;;;;;12.60;99126.00;;;;5008855;28;20320;-76
2022/11/22 10:04:15;;;;;;;3.65;1.10;;;;;12.60;99122.00;;;;5008432;28;20287;-76
2022/11/22 10:06:46;;;;;;;2.85;1.00;;;;;12.60;99122.00;;;;5019095;28;20244;-75
2022/11/22 10:09:29;;;;;;;4.75;1.25;;;;;12.60;99117.00;;;;5012362;28;20208;-76
2022/11/22 10:12:02;;;;;;;6.10;1.40;;;;;12.60;99119.00;;;;5008161;28;20266;-75
2022/11/22 10:14:41;;;;;;;3.60;0.80;;;;;12.60;99116.00;;;;5021100;28;20195;-75
2022/11/22 10:17:25;;;;;;;3.03;0.98;;;;;12.60;99120.00;;;;5013956;28;20196;-76
2022/11/22 10:19:59;;;;;;;6.47;1.00;;;;;12.70;99115.00;;;;5013655;28;20201;-76
2022/11/22 10:22:29;;;;;;;1.25;1.00;;;;;12.70;99110.00;;;;5011954;28;20205;-76
2022/11/22 10:24:58;;;;;;;2.05;0.90;;;;;12.80;99114.00;;;;5014486;28;20200;-76
2022/11/22 10:27:31;;;;;;;1.63;0.75;;;;;12.70;99108.00;;;;5015850;28;20228;-76
2022/11/22 10:30:04;;;;;;;1.95;0.85;;;;;12.70;99111.00;;;;5022106;28;20196;-76
2022/11/22 10:32:37;;;;;;;2.67;1.00;;;;;12.80;99122.00;;;;5016643;28;20255;-76
2022/11/22 10:35:46;;;;;;;1.48;0.88;;;;;12.70;99110.00;;;;5019805;28;20231;-76
2022/11/22 10:38:35;;;;;;;4.88;1.00;;;;;12.70;99101.00;;;;5020535;28;20207;-76
2022/11/22 10:41:10;;;;;;;13.40;1.40;;;;;12.80;99103.00;;;;5019696;28;20667;-76
2022/11/22 10:43:46;;;;;;;4.43;1.45;;;;;12.80;99098.00;;;;5022612;28;20188;-76
2022/11/22 10:46:24;;;;;;;4.70;1.10;;;;;12.80;99101.00;;;;5023227;28;20223;-76
2022/11/22 10:48:58;;;;;;;3.28;0.98;;;;;12.90;99101.00;;;;5013067;28;20201;-76
2022/11/22 10:51:31;;;;;;;4.82;1.08;;;;;12.90;99105.00;;;;5022361;28;20966;-76
2022/11/22 10:54:13;;;;;;;2.00;1.15;;;;;12.90;99099.00;;;;5020054;28;20212;-76
2022/11/22 10:56:49;;;;;;;2.53;1.17;;;;;13.00;99097.00;;;;5011307;28;20208;-76
2022/11/22 10:59:34;;;;;;;3.47;0.93;;;;;13.00;99086.00;;;;5011674;28;20200;-76
2022/11/22 11:02:15;;;;;;;2.72;1.40;;;;;13.00;99086.00;;;;5012221;28;20562;-76
2022/11/22 11:04:44;;;;;;;2.30;0.98;;;;;13.10;99082.00;;;;5016070;28;20208;-76
2022/11/22 11:07:15;;;;;;;4.18;0.85;;;;;13.10;99072.00;;;;5020280;28;20217;-76
2022/11/22 11:09:46;;;;;;;3.20;1.00;;;;;13.20;99079.00;;;;5018025;28;20239;-76
2022/11/22 11:12:17;;;;;;;1.65;0.82;;;;;13.30;99077.00;;;;5011302;28;20196;-76
2022/11/22 11:14:48;;;;;;;3.35;1.10;;;;;13.30;99079.00;;;;5014704;28;20208;-76
2022/11/22 11:17:26;;;;;;;3.78;0.85;;;;;13.40;99082.00;;;;5011196;28;20662;-76
2022/11/22 11:19:54;;;;;;;2.80;1.38;;;;;13.40;99075.00;;;;5010926;28;20201;-76
2022/11/22 11:22:24;;;;;;;1.88;1.00;;;;;13.40;99075.00;;;;5010670;28;20205;-75
2022/11/22 11:24:51;;;;;;;2.63;0.80;;;;;13.50;99074.00;;;;5015838;28;20197;-76
2022/11/22 11:27:20;;;;;;;4.15;0.60;;;;;13.50;99079.00;;;;5022414;28;20223;-76
2022/11/22 11:29:50;;;;;;;3.00;0.82;;;;;13.50;99075.00;;;;5026548;28;20207;-76
2022/11/22 11:32:21;;;;;;;2.83;0.90;;;;;13.50;99079.00;;;;5028911;28;20197;-76
2022/11/22 11:34:53;;;;;;;3.70;1.00;;;;;13.50;99070.00;;;;5012640;28;20233;-75
2022/11/22 11:37:26;;;;;;;0.90;0.52;;;;;13.50;99069.00;;;;5010537;28;20193;-76
2022/11/22 11:39:53;;;;;;;2.78;0.90;;;;;13.60;99075.00;;;;5016607;28;20212;-77
2022/11/22 11:42:24;;;;;;;1.23;0.75;;;;;13.60;99071.00;;;;5026780;28;20204;-77
2022/11/22 11:44:51;;;;;;;1.17;0.55;;;;;13.60;99060.00;;;;5011000;28;20586;-77
2022/11/22 11:47:31;;;;;;;2.17;0.82;;;;;13.60;99052.00;;;;5024036;28;20227;-76
2022/11/22 11:49:59;;;;;;;1.73;0.50;;;;;13.60;99053.00;;;;5029649;28;20193;-76
2022/11/22 11:52:28;;;;;;;3.28;0.60;;;;;13.60;99067.00;;;;5029328;28;20666;-76
2022/11/22 11:54:58;;;;;;;1.27;0.95;;;;;13.60;99058.00;;;;5028180;28;20197;-76
2022/11/22 11:57:29;;;;;;;0.88;0.40;;;;;13.60;99064.00;;;;5010229;28;20197;-77
2022/11/22 11:59:58;;;;;;;2.25;0.60;;;;;13.60;99066.00;;;;5010652;28;20224;-76
2022/11/22 12:02:34;;;;;;;3.63;1.13;;;;;13.60;99071.00;;;;5015578;28;20205;-76
2022/11/22 12:05:04;;;;;;;1.27;0.57;;;;;13.60;99072.00;;;;5010642;28;20188;-76
2022/11/22 12:07:42;;;;;;;1.70;0.68;;;;;13.60;99066.00;;;;5028066;28;20724;-76
2022/11/22 12:10:29;;;;;;;0.95;0.65;;;;;13.60;99066.00;;;;5021281;28;20593;-76
2022/11/22 12:13:01;;;;;;;0.80;0.40;;;;;13.70;99070.00;;;;5009571;28;21041;-77
2022/11/22 12:15:39;;;;;;;1.17;0.65;;;;;13.70;99059.00;;;;5009923;28;20203;-76
2022/11/22 12:18:30;;;;;;;2.03;0.60;;;;;13.70;99056.00;;;;5011819;28;20743;-76
2022/11/22 12:21:11;;;;;;;1.95;0.80;;;;;13.70;99063.00;;;;5012940;28;20575;-77
2022/11/22 12:23:45;;;;;;;0.80;0.40;;;;;13.80;99063.00;;;;5007855;28;20394;-76
2022/11/22 12:26:14;;;;;;;2.67;0.55;;;;;13.80;99064.00;;;;5025705;28;20239;-77
2022/11/22 12:28:42;;;;;;;2.20;0.80;;;;;13.80;99056.00;;;;5020275;28;20197;-76
2022/11/22 12:31:18;;;;;;;2.63;0.90;;;;;13.80;99059.00;;;;5019877;28;20199;-76
2022/11/22 12:33:50;;;;;;;0.90;0.45;;;;;13.80;99056.00;;;;5017208;28;20199;-76
2022/11/22 12:36:25;;;;;;;2.17;1.08;;;;;13.80;99056.00;;;;5017073;28;20193;-77
2022/11/22 12:38:54;;;;;;;0.95;0.63;;;;;13.80;99041.00;;;;5027934;28;20670;-77
2022/11/22 12:41:26;;;;;;;1.40;0.70;;;;;13.80;99054.00;;;;5023620;28;20201;-76
2022/11/22 12:43:57;;;;;;;2.95;1.10;;;;;13.80;99057.00;;;;5010694;28;20193;-76